Time;durP1;ratioP1;P1;durP2;ratioP2;P2;SDS_P1;SDS_P2;PMS_P1;PMS_P2;Temp;Humidity;BMP_temperature;BMP_pressure;BME280_temperature;BME280_humidity;BME280_pressure;Samples;Min_cycle;Max_cycle;Signal;HPM_P1;HPM_P2
2023/07/11 00:01:58;;;;;;;3.28;1.70;;;23.30;99.30;;;;;;4162159;28;20030;-59
2023/07/11 00:03:59;;;;;;;4.38;1.83;;;23.30;99.20;;;;;;4155130;28;20458;-60
2023/07/11 00:06:05;;;;;;;2.58;1.55;;;23.40;99.20;;;;;;4166158;28;20048;-59
2023/07/11 00:08:07;;;;;;;4.72;2.38;;;23.40;99.20;;;;;;4168055;28;20048;-59
2023/07/11 00:10:10;;;;;;;2.45;1.40;;;23.40;98.80;;;;;;4148515;28;20032;-61
2023/07/11 00:12:10;;;;;;;2.13;1.60;;;23.30;98.70;;;;;;4160531;28;20551;-61
2023/07/11 00:14:11;;;;;;;3.83;1.70;;;23.30;98.80;;;;;;4171560;28;20349;-61
2023/07/11 00:16:14;;;;;;;2.80;1.80;;;23.30;98.60;;;;;;4145864;28;20060;-60
2023/07/11 00:18:14;;;;;;;2.50;1.50;;;23.30;98.90;;;;;;4162735;28;20074;-60
2023/07/11 00:20:16;;;;;;;2.97;1.90;;;23.30;98.70;;;;;;4168115;28;20493;-59
2023/07/11 00:22:18;;;;;;;3.95;1.77;;;23.30;99.10;;;;;;4167100;28;20045;-60
2023/07/11 00:24:18;;;;;;;4.05;1.92;;;23.30;99.30;;;;;;4169033;28;20032;-60
2023/07/11 00:26:19;;;;;;;4.05;1.90;;;23.30;98.80;;;;;;4166089;28;20032;-60
2023/07/11 00:28:19;;;;;;;4.88;2.17;;;23.30;99.40;;;;;;4168143;28;20483;-60
2023/07/11 00:30:20;;;;;;;3.25;1.92;;;23.30;98.70;;;;;;4164385;28;20028;-62
2023/07/11 00:32:22;;;;;;;2.92;1.90;;;23.30;98.60;;;;;;4173249;28;20484;-60
2023/07/11 00:34:22;;;;;;;5.78;1.75;;;23.30;99.40;;;;;;4169395;28;20119;-59
2023/07/11 00:36:23;;;;;;;3.67;1.70;;;23.30;98.80;;;;;;4183966;28;20479;-60
2023/07/11 00:38:24;;;;;;;2.83;1.75;;;23.20;98.90;;;;;;4183501;28;20084;-60
2023/07/11 00:40:24;;;;;;;3.95;1.88;;;23.30;99.10;;;;;;4177098;28;20379;-60
2023/07/11 00:42:25;;;;;;;4.72;2.17;;;23.20;98.80;;;;;;4181321;28;20369;-60
2023/07/11 00:44:26;;;;;;;3.85;1.80;;;23.20;98.80;;;;;;4184920;28;20494;-60
2023/07/11 00:46:28;;;;;;;4.18;1.95;;;23.20;98.30;;;;;;4176982;28;20123;-60
2023/07/11 00:48:33;;;;;;;4.28;2.00;;;23.20;99.10;;;;;;4162334;28;20108;-60
2023/07/11 00:50:34;;;;;;;3.42;1.73;;;23.10;99.20;;;;;;4181303;28;20173;-60
2023/07/11 00:52:37;;;;;;;4.57;1.73;;;23.10;98.70;;;;;;4184714;28;20497;-59
2023/07/11 00:54:37;;;;;;;3.72;1.70;;;23.10;98.60;;;;;;4180942;28;20033;-60
2023/07/11 00:56:43;;;;;;;3.50;1.65;;;23.10;98.90;;;;;;4184130;28;20131;-60
2023/07/11 00:58:45;;;;;;;4.55;2.28;;;23.00;98.80;;;;;;4180745;28;20033;-60
2023/07/11 01:00:46;;;;;;;5.88;2.03;;;23.00;98.80;;;;;;4183240;28;20033;-59
2023/07/11 01:02:46;;;;;;;3.92;1.70;;;22.90;98.80;;;;;;4174662;28;20075;-60
2023/07/11 01:04:47;;;;;;;3.40;1.70;;;23.00;99.90;;;;;;4174838;28;20038;-60
2023/07/11 01:06:48;;;;;;;4.07;1.88;;;22.90;99.10;;;;;;4180673;28;20068;-60
2023/07/11 01:08:51;;;;;;;4.85;1.90;;;22.90;99.40;;;;;;4180500;28;20059;-59
2023/07/11 01:10:51;;;;;;;3.70;1.73;;;22.90;99.30;;;;;;4179587;28;20041;-60
2023/07/11 01:12:58;;;;;;;3.03;1.77;;;22.90;99.60;;;;;;4181720;28;20063;-60
2023/07/11 01:14:59;;;;;;;3.72;1.90;;;23.00;99.90;;;;;;4175876;28;20033;-59
2023/07/11 01:17:00;;;;;;;4.10;2.00;;;23.00;99.90;;;;;;4174419;28;20041;-60
2023/07/11 01:19:00;;;;;;;2.75;1.85;;;23.00;99.90;;;;;;4177297;28;20036;-59
2023/07/11 01:21:04;;;;;;;4.05;1.85;;;23.00;99.90;;;;;;4172805;28;20065;-59
2023/07/11 01:23:04;;;;;;;3.20;1.77;;;23.00;99.90;;;;;;4165684;28;20119;-59
2023/07/11 01:25:12;;;;;;;3.00;1.73;;;23.00;99.90;;;;;;4181500;28;20373;-60
2023/07/11 01:27:13;;;;;;;3.05;1.90;;;23.00;99.80;;;;;;4183760;28;20518;-59
2023/07/11 01:29:14;;;;;;;2.72;1.48;;;23.00;99.90;;;;;;4180076;28;20029;-60
2023/07/11 01:31:14;;;;;;;3.88;2.22;;;23.00;99.90;;;;;;4179302;28;20071;-60
2023/07/11 01:33:15;;;;;;;3.47;2.05;;;23.00;99.90;;;;;;4174901;28;20400;-60
2023/07/11 01:35:16;;;;;;;3.80;1.80;;;23.00;99.90;;;;;;4175843;28;20059;-60
2023/07/11 01:37:17;;;;;;;4.75;2.05;;;23.00;99.90;;;;;;4179478;28;20083;-59
2023/07/11 01:39:18;;;;;;;3.30;1.95;;;23.00;99.90;;;;;;4172818;28;20025;-60
2023/07/11 01:41:18;;;;;;;3.20;1.83;;;23.00;99.90;;;;;;4158794;28;20115;-59
2023/07/11 01:43:20;;;;;;;4.50;2.10;;;23.00;99.90;;;;;;4177404;28;20400;-60
2023/07/11 01:45:20;;;;;;;3.28;1.80;;;23.00;99.90;;;;;;4177545;28;20045;-59
2023/07/11 01:47:21;;;;;;;2.72;1.70;;;23.00;99.90;;;;;;4184643;28;20144;-62
2023/07/11 01:49:22;;;;;;;5.35;2.00;;;23.00;99.90;;;;;;4178038;28;20488;-60
2023/07/11 01:51:22;;;;;;;3.75;1.83;;;23.00;99.90;;;;;;4186168;28;20421;-59
2023/07/11 01:53:23;;;;;;;3.88;2.20;;;23.00;99.90;;;;;;4185296;28;20043;-60
2023/07/11 01:55:23;;;;;;;4.18;1.85;;;23.00;99.90;;;;;;4180706;28;20485;-60
2023/07/11 01:57:24;;;;;;;3.42;1.88;;;23.00;99.90;;;;;;4181995;28;20033;-59
2023/07/11 01:59:25;;;;;;;3.80;2.10;;;23.00;99.90;;;;;;4179911;28;20039;-60
2023/07/11 02:01:25;;;;;;;3.53;2.13;;;23.00;99.90;;;;;;4178788;28;20075;-60
2023/07/11 02:03:26;;;;;;;3.60;1.75;;;23.00;99.80;;;;;;4186195;28;20029;-59
2023/07/11 02:05:27;;;;;;;4.63;2.28;;;23.00;99.90;;;;;;4186719;28;20071;-60
2023/07/11 02:07:28;;;;;;;3.13;1.60;;;23.00;99.90;;;;;;4186887;28;20029;-60
2023/07/11 02:09:28;;;;;;;3.95;1.70;;;23.00;99.90;;;;;;4164997;28;20104;-59
2023/07/11 02:11:29;;;;;;;2.65;1.60;;;23.00;99.90;;;;;;4180109;28;20029;-60
2023/07/11 02:13:29;;;;;;;5.05;1.98;;;23.00;99.90;;;;;;4182853;28;20103;-59
2023/07/11 02:15:30;;;;;;;4.75;2.03;;;22.90;99.90;;;;;;4177223;28;20076;-60
2023/07/11 02:17:32;;;;;;;3.58;1.83;;;22.90;99.90;;;;;;4182555;28;20528;-59
2023/07/11 02:19:32;;;;;;;4.25;1.98;;;22.80;99.90;;;;;;4166448;28;20152;-59
2023/07/11 02:21:33;;;;;;;4.07;2.05;;;22.90;99.90;;;;;;4180228;28;20476;-59
2023/07/11 02:23:33;;;;;;;3.17;1.80;;;22.80;99.90;;;;;;4182685;28;20033;-59
2023/07/11 02:25:34;;;;;;;3.88;2.00;;;22.80;99.90;;;;;;4177033;28;20094;-59
2023/07/11 02:27:34;;;;;;;3.28;1.90;;;22.80;99.90;;;;;;4175296;28;20119;-59
2023/07/11 02:29:35;;;;;;;4.35;2.13;;;22.80;99.90;;;;;;4180213;28;20037;-59
2023/07/11 02:31:36;;;;;;;2.63;1.60;;;22.80;99.90;;;;;;4180965;28;20039;-59
2023/07/11 02:33:38;;;;;;;3.83;1.80;;;22.80;99.90;;;;;;4182763;28;20504;-59
2023/07/11 02:35:39;;;;;;;3.38;1.90;;;22.80;99.90;;;;;;4181522;28;20072;-59
2023/07/11 02:37:40;;;;;;;2.92;2.13;;;22.80;99.90;;;;;;4182681;28;20047;-59
2023/07/11 02:39:41;;;;;;;3.35;2.10;;;22.80;99.90;;;;;;4178218;28;20061;-60
2023/07/11 02:41:41;;;;;;;4.78;2.22;;;22.70;99.90;;;;;;4184853;28;20039;-59
2023/07/11 02:43:42;;;;;;;4.72;2.53;;;22.70;99.90;;;;;;4162413;28;20063;-60
2023/07/11 02:45:43;;;;;;;4.90;2.42;;;22.70;99.90;;;;;;4180931;28;20043;-59
2023/07/11 02:47:43;;;;;;;4.72;2.53;;;22.60;99.90;;;;;;4182806;28;20037;-59
2023/07/11 02:49:44;;;;;;;4.53;2.20;;;22.60;99.90;;;;;;4178005;28;20021;-64
2023/07/11 02:51:44;;;;;;;4.07;2.00;;;22.60;99.90;;;;;;4182920;28;20067;-60
2023/07/11 02:53:45;;;;;;;4.15;2.38;;;22.50;99.90;;;;;;4182701;28;20499;-60
2023/07/11 02:55:46;;;;;;;4.18;2.63;;;22.50;99.90;;;;;;4180351;28;20488;-59
2023/07/11 02:57:46;;;;;;;5.15;2.45;;;22.50;99.90;;;;;;4176265;28;20087;-59
2023/07/11 02:59:47;;;;;;;5.00;2.75;;;22.40;99.90;;;;;;4165850;28;20044;-60
2023/07/11 03:01:47;;;;;;;4.50;2.20;;;22.40;99.90;;;;;;4175799;28;20029;-60
2023/07/11 03:03:48;;;;;;;7.78;2.45;;;22.30;99.90;;;;;;4175837;28;20086;-60
2023/07/11 03:05:51;;;;;;;6.32;2.72;;;22.30;99.90;;;;;;4183498;28;20029;-60
2023/07/11 03:07:51;;;;;;;4.30;2.20;;;22.30;99.90;;;;;;4181732;28;20036;-60
2023/07/11 03:09:52;;;;;;;6.38;2.72;;;22.30;99.90;;;;;;4175283;28;20116;-60
2023/07/11 03:11:53;;;;;;;5.70;2.20;;;22.30;99.90;;;;;;4173901;28;20150;-59
2023/07/11 03:13:53;;;;;;;4.53;2.40;;;22.30;99.90;;;;;;4181463;28;20039;-60
2023/07/11 03:15:54;;;;;;;6.35;2.17;;;22.20;99.90;;;;;;4180535;28;20072;-59
2023/07/11 03:17:55;;;;;;;4.30;2.30;;;22.20;99.90;;;;;;4184871;28;20377;-60
2023/07/11 03:19:55;;;;;;;4.40;2.70;;;22.10;99.90;;;;;;4176780;28;20116;-60
2023/07/11 03:21:56;;;;;;;4.05;2.20;;;22.20;99.90;;;;;;4180502;28;20351;-60
2023/07/11 03:23:56;;;;;;;7.28;3.47;;;22.10;99.90;;;;;;4181195;28;20048;-59
2023/07/11 03:25:57;;;;;;;4.82;2.47;;;22.10;99.90;;;;;;4162388;28;20041;-59
2023/07/11 03:27:58;;;;;;;4.72;2.17;;;22.00;99.90;;;;;;4176543;28;20033;-59
2023/07/11 03:29:58;;;;;;;8.55;2.90;;;22.00;99.90;;;;;;4177662;28;20044;-59
2023/07/11 03:31:59;;;;;;;4.25;2.47;;;22.00;99.90;;;;;;4176710;28;20058;-59
2023/07/11 03:33:59;;;;;;;3.65;2.80;;;22.00;99.90;;;;;;4181241;28;20407;-60
2023/07/11 03:36:00;;;;;;;4.35;2.60;;;21.90;99.90;;;;;;4170467;28;20059;-59
2023/07/11 03:38:01;;;;;;;8.30;3.00;;;21.90;99.90;;;;;;4173337;28;20072;-59
2023/07/11 03:40:03;;;;;;;5.85;2.90;;;21.90;99.90;;;;;;4172275;28;20033;-61
2023/07/11 03:42:04;;;;;;;6.32;2.72;;;21.70;99.90;;;;;;4152894;28;20065;-59
2023/07/11 03:44:04;;;;;;;11.13;2.47;;;21.70;99.90;;;;;;4176896;28;20045;-59
2023/07/11 03:46:05;;;;;;;4.40;2.75;;;21.70;99.90;;;;;;4172650;28;20396;-59
2023/07/11 03:48:05;;;;;;;3.80;2.55;;;21.70;99.90;;;;;;4175364;28;20143;-59
2023/07/11 03:50:06;;;;;;;5.22;2.40;;;21.70;99.90;;;;;;4177910;28;20086;-60
2023/07/11 03:52:07;;;;;;;6.40;2.83;;;21.70;99.90;;;;;;4178213;28;20039;-59
2023/07/11 03:54:07;;;;;;;6.68;2.47;;;21.70;99.90;;;;;;4179358;28;20047;-59
2023/07/11 03:56:08;;;;;;;4.85;3.00;;;21.60;99.90;;;;;;4176523;28;20024;-59
2023/07/11 03:58:09;;;;;;;5.22;3.20;;;21.70;99.90;;;;;;4184926;28;20033;-59
2023/07/11 04:00:10;;;;;;;5.45;2.67;;;21.60;99.90;;;;;;4161802;28;20037;-60
2023/07/11 04:02:11;;;;;;;7.03;2.83;;;21.50;99.90;;;;;;4176037;28;20071;-59
2023/07/11 04:04:11;;;;;;;6.30;2.92;;;21.50;99.90;;;;;;4181840;28;20508;-59
2023/07/11 04:06:12;;;;;;;4.72;2.50;;;21.50;99.90;;;;;;4176327;28;20025;-59
2023/07/11 04:08:13;;;;;;;4.05;2.53;;;21.40;99.90;;;;;;4180110;28;20098;-59
2023/07/11 04:10:13;;;;;;;4.82;2.78;;;21.40;99.90;;;;;;4176498;28;20024;-59
2023/07/11 04:12:14;;;;;;;5.93;3.10;;;21.30;99.90;;;;;;4178748;28;20028;-59
2023/07/11 04:14:14;;;;;;;4.30;2.60;;;21.30;99.90;;;;;;4181535;28;20033;-59
2023/07/11 04:16:15;;;;;;;5.72;3.35;;;21.40;99.90;;;;;;4178058;28;20056;-62
2023/07/11 04:18:16;;;;;;;7.07;3.20;;;21.40;99.90;;;;;;4173589;28;20033;-59
2023/07/11 04:20:16;;;;;;;7.75;3.45;;;21.30;99.90;;;;;;4174328;28;20124;-60
2023/07/11 04:22:17;;;;;;;7.28;2.90;;;21.30;99.90;;;;;;4177774;28;20047;-59
2023/07/11 04:24:17;;;;;;;7.18;3.28;;;21.30;99.90;;;;;;4184994;28;20037;-59
2023/07/11 04:26:18;;;;;;;4.78;2.72;;;21.30;99.90;;;;;;4181273;28;20497;-59
2023/07/11 04:28:19;;;;;;;8.35;3.35;;;21.30;99.90;;;;;;4176720;28;20487;-60
2023/07/11 04:30:20;;;;;;;5.75;3.03;;;21.30;99.90;;;;;;4181624;28;20028;-59
2023/07/11 04:32:21;;;;;;;5.40;2.75;;;21.30;99.90;;;;;;4176151;28;20021;-59
2023/07/11 04:34:21;;;;;;;5.25;2.83;;;21.30;99.90;;;;;;4176732;28;20044;-59
2023/07/11 04:36:22;;;;;;;7.35;3.00;;;21.30;99.90;;;;;;4179625;28;20025;-61
2023/07/11 04:38:22;;;;;;;5.85;3.03;;;21.30;99.90;;;;;;4177537;28;20488;-59
2023/07/11 04:40:23;;;;;;;5.65;2.70;;;21.30;99.90;;;;;;4181493;28;20027;-60
2023/07/11 04:42:24;;;;;;;5.38;2.63;;;21.30;99.90;;;;;;4182398;28;20109;-60
2023/07/11 04:44:25;;;;;;;7.38;2.75;;;21.30;99.90;;;;;;4170419;28;20029;-61
2023/07/11 04:46:26;;;;;;;5.60;2.72;;;21.30;99.90;;;;;;4174941;28;20030;-62
2023/07/11 04:48:27;;;;;;;6.65;2.80;;;21.30;99.90;;;;;;4176756;28;20116;-61
2023/07/11 04:50:27;;;;;;;5.72;2.75;;;21.30;99.90;;;;;;4169193;28;20029;-62
2023/07/11 04:52:29;;;;;;;8.13;2.90;;;21.30;99.90;;;;;;4173502;28;20467;-62
2023/07/11 04:54:29;;;;;;;6.43;2.92;;;21.30;99.90;;;;;;4181803;28;20029;-61
2023/07/11 04:56:30;;;;;;;6.15;2.67;;;21.30;99.90;;;;;;4180780;28;20128;-61
2023/07/11 04:58:32;;;;;;;5.93;2.35;;;21.30;99.90;;;;;;4181520;28;20033;-62
2023/07/11 05:00:32;;;;;;;6.07;2.72;;;21.30;99.90;;;;;;4173441;28;20048;-62
2023/07/11 05:02:34;;;;;;;5.47;2.92;;;21.30;99.90;;;;;;4171505;28;20370;-62
2023/07/11 05:04:35;;;;;;;5.10;2.75;;;21.30;99.90;;;;;;4158441;28;20075;-61
2023/07/11 05:06:35;;;;;;;4.18;2.47;;;21.40;99.90;;;;;;4177016;28;20427;-61
2023/07/11 05:08:36;;;;;;;4.95;2.40;;;21.30;99.90;;;;;;4174635;28;20024;-61
2023/07/11 05:10:36;;;;;;;10.95;2.63;;;21.30;99.90;;;;;;4159835;28;20026;-61
2023/07/11 05:12:37;;;;;;;6.28;2.50;;;21.30;99.90;;;;;;4176616;28;20124;-61
2023/07/11 05:14:38;;;;;;;5.40;2.88;;;21.40;99.90;;;;;;4182164;28;20031;-61
2023/07/11 05:16:38;;;;;;;3.97;2.15;;;21.40;99.90;;;;;;4176900;28;20468;-61
2023/07/11 05:18:40;;;;;;;5.65;2.40;;;21.40;99.90;;;;;;4183556;28;20480;-62
2023/07/11 05:20:41;;;;;;;6.20;2.47;;;21.40;99.90;;;;;;4182679;28;20396;-61
2023/07/11 05:22:41;;;;;;;5.63;2.60;;;21.50;99.90;;;;;;4181015;28;20204;-61
2023/07/11 05:24:42;;;;;;;6.55;2.50;;;21.40;99.90;;;;;;4182451;28;20040;-61
2023/07/11 05:26:42;;;;;;;5.90;2.38;;;21.40;99.90;;;;;;4176104;28;20037;-61
2023/07/11 05:28:44;;;;;;;6.85;2.85;;;21.50;99.90;;;;;;4162107;28;20037;-62
2023/07/11 05:30:45;;;;;;;5.63;2.60;;;21.50;99.90;;;;;;4172780;28;20116;-62
2023/07/11 05:32:45;;;;;;;4.40;2.45;;;21.50;99.90;;;;;;4175044;28;20033;-61
2023/07/11 05:34:46;;;;;;;5.35;2.38;;;21.50;99.90;;;;;;4180493;28;20095;-61
2023/07/11 05:36:47;;;;;;;5.78;2.60;;;21.60;99.90;;;;;;4163549;28;20496;-62
2023/07/11 05:38:48;;;;;;;4.38;2.25;;;21.60;99.90;;;;;;4175702;28;20052;-61
2023/07/11 05:40:48;;;;;;;5.15;2.72;;;21.70;99.90;;;;;;4183180;28;20029;-62
2023/07/11 05:42:49;;;;;;;6.15;2.42;;;21.70;99.90;;;;;;4183582;28;20040;-61
2023/07/11 05:44:49;;;;;;;4.93;2.38;;;21.70;99.90;;;;;;4178819;28;20040;-61
2023/07/11 05:46:50;;;;;;;4.85;2.72;;;21.80;99.90;;;;;;4179769;28;20120;-62
2023/07/11 05:48:52;;;;;;;6.07;2.40;;;21.80;99.90;;;;;;4183106;28;20036;-63
2023/07/11 05:51:05;;;;;;;6.18;2.78;;;21.80;99.90;;;;;;4174887;28;20095;-61
2023/07/11 05:53:06;;;;;;;7.80;2.65;;;21.80;99.90;;;;;;4181618;28;20049;-61
2023/07/11 05:55:08;;;;;;;2.97;2.08;;;21.90;99.90;;;;;;4174708;28;20400;-62
2023/07/11 05:57:08;;;;;;;5.53;2.22;;;22.00;99.90;;;;;;4172502;28;20040;-62
2023/07/11 05:59:09;;;;;;;4.57;2.40;;;22.10;99.90;;;;;;4173235;28;20488;-61
2023/07/11 06:01:14;;;;;;;3.28;2.17;;;22.40;99.90;;;;;;4173263;28;20419;-62
2023/07/11 06:03:15;;;;;;;4.32;2.20;;;22.70;99.90;;;;;;4172490;28;20041;-61
2023/07/11 06:05:15;;;;;;;3.85;2.28;;;23.20;99.90;;;;;;4181649;28;20050;-62
2023/07/11 06:07:16;;;;;;;2.75;1.70;;;23.60;99.90;;;;;;4179836;28;20063;-62
2023/07/11 06:09:20;;;;;;;3.28;2.13;;;24.00;99.90;;;;;;4185787;28;20036;-62
2023/07/11 06:11:20;;;;;;;3.90;1.90;;;24.50;99.90;;;;;;4159918;28;20192;-62
2023/07/11 06:13:21;;;;;;;3.33;1.70;;;24.90;99.90;;;;;;4155541;28;20040;-67
2023/07/11 06:15:22;;;;;;;5.05;2.55;;;25.40;99.60;;;;;;4174884;28;20029;-63
2023/07/11 06:17:22;;;;;;;4.13;2.20;;;25.60;99.20;;;;;;4182607;28;20032;-63
2023/07/11 06:19:23;;;;;;;4.50;2.13;;;26.00;98.30;;;;;;4178092;28;20110;-63
2023/07/11 06:21:24;;;;;;;3.88;2.20;;;26.30;97.70;;;;;;4177150;28;20041;-64
2023/07/11 06:23:24;;;;;;;4.68;2.45;;;26.70;97.10;;;;;;4186379;28;20040;-63
2023/07/11 06:25:25;;;;;;;3.35;1.88;;;27.00;96.20;;;;;;4179336;28;20722;-63
2023/07/11 06:27:26;;;;;;;3.25;2.13;;;27.20;95.00;;;;;;4176578;28;20045;-63
2023/07/11 06:29:29;;;;;;;3.08;2.08;;;27.40;95.00;;;;;;4169284;28;20037;-63
2023/07/11 06:31:30;;;;;;;3.17;2.10;;;27.60;94.30;;;;;;4179792;28;20051;-63
2023/07/11 06:33:30;;;;;;;4.43;2.13;;;27.80;94.70;;;;;;4183113;28;20033;-63
2023/07/11 06:35:31;;;;;;;3.50;2.00;;;28.00;94.10;;;;;;4179395;28;20417;-63
2023/07/11 06:37:31;;;;;;;5.13;2.08;;;28.20;93.10;;;;;;4180543;28;20491;-63
2023/07/11 06:39:32;;;;;;;3.03;1.92;;;28.30;94.00;;;;;;4172158;28;20048;-63
2023/07/11 06:41:33;;;;;;;3.05;1.77;;;28.30;93.10;;;;;;4176268;28;20044;-63
2023/07/11 06:43:33;;;;;;;2.88;1.63;;;28.30;92.90;;;;;;4182679;28;20033;-63
2023/07/11 06:45:34;;;;;;;2.97;1.83;;;28.30;92.50;;;;;;4172081;28;20080;-63
2023/07/11 06:47:35;;;;;;;4.15;2.08;;;28.40;92.90;;;;;;4167890;28;20128;-63
2023/07/11 06:49:36;;;;;;;4.35;2.20;;;28.50;92.70;;;;;;4169858;28;20033;-63
2023/07/11 06:51:36;;;;;;;3.00;1.90;;;28.40;92.70;;;;;;4166066;28;20570;-63
2023/07/11 06:53:37;;;;;;;3.75;2.03;;;28.40;92.70;;;;;;4171023;28;20038;-63
2023/07/11 06:55:43;;;;;;;7.15;1.92;;;28.30;92.60;;;;;;4166889;28;20089;-63
2023/07/11 06:57:43;;;;;;;4.40;2.00;;;28.30;92.20;;;;;;4169455;28;20037;-63
2023/07/11 06:59:46;;;;;;;3.45;1.90;;;28.20;92.10;;;;;;4167654;28;20130;-63
2023/07/11 07:01:47;;;;;;;3.17;2.05;;;28.10;91.60;;;;;;4151369;28;20108;-63
2023/07/11 07:03:49;;;;;;;5.38;2.10;;;28.10;92.10;;;;;;4167054;28;20116;-63
2023/07/11 07:05:52;;;;;;;3.38;1.77;;;28.10;91.90;;;;;;4165709;28;20152;-63
2023/07/11 07:07:53;;;;;;;2.90;1.70;;;28.10;92.00;;;;;;4169363;28;20036;-69
2023/07/11 07:09:53;;;;;;;2.85;1.98;;;28.10;92.00;;;;;;4167541;28;20400;-64
2023/07/11 07:11:54;;;;;;;2.25;1.70;;;28.20;92.50;;;;;;4150774;28;20134;-64
2023/07/11 07:13:55;;;;;;;4.00;1.80;;;28.20;92.40;;;;;;4166709;28;20037;-63
2023/07/11 07:15:58;;;;;;;2.90;1.60;;;28.10;91.60;;;;;;4164870;28;20045;-63
2023/07/11 07:17:58;;;;;;;4.10;1.98;;;28.10;92.30;;;;;;4167032;28;20082;-63
2023/07/11 07:19:59;;;;;;;4.80;2.20;;;28.20;92.40;;;;;;4168138;28;20087;-63
2023/07/11 07:21:59;;;;;;;2.63;1.80;;;28.20;91.50;;;;;;4167342;28;20052;-64
2023/07/11 07:24:00;;;;;;;4.15;1.77;;;28.30;91.50;;;;;;4167957;28;20060;-63
2023/07/11 07:26:02;;;;;;;3.75;1.95;;;28.30;91.30;;;;;;4168743;28;20049;-63
2023/07/11 07:28:04;;;;;;;2.53;1.60;;;28.20;91.10;;;;;;4165595;28;20033;-63
2023/07/11 07:30:05;;;;;;;3.47;1.85;;;28.20;91.40;;;;;;4168752;28;20036;-63
2023/07/11 07:32:06;;;;;;;4.30;2.13;;;28.20;91.40;;;;;;4165467;28;20034;-63
2023/07/11 07:34:07;;;;;;;3.72;2.10;;;28.20;91.20;;;;;;4170578;28;20523;-63
2023/07/11 07:36:09;;;;;;;2.47;1.65;;;28.20;91.50;;;;;;4163670;28;20068;-63
2023/07/11 07:38:11;;;;;;;2.95;1.80;;;28.20;91.80;;;;;;4165350;28;20478;-63
2023/07/11 07:40:11;;;;;;;5.20;2.25;;;28.30;92.00;;;;;;4167157;28;20435;-64
2023/07/11 07:42:15;;;;;;;4.97;2.35;;;28.30;91.10;;;;;;4164424;28;20052;-63
2023/07/11 07:44:15;;;;;;;4.65;2.20;;;28.30;91.70;;;;;;4172419;28;20204;-63
2023/07/11 07:46:17;;;;;;;5.22;2.88;;;28.30;92.00;;;;;;4168297;28;20068;-63
2023/07/11 07:48:18;;;;;;;9.02;3.30;;;28.30;91.60;;;;;;4166019;28;20098;-63
2023/07/11 07:50:19;;;;;;;10.80;4.30;;;28.30;91.60;;;;;;4171831;28;20063;-63
2023/07/11 07:52:20;;;;;;;10.45;4.88;;;28.30;91.30;;;;;;4172118;28;20072;-63
2023/07/11 07:54:21;;;;;;;16.38;5.32;;;28.30;91.70;;;;;;4166242;28;20043;-63
2023/07/11 07:56:23;;;;;;;10.13;4.53;;;28.30;92.30;;;;;;4167772;28;20029;-63
2023/07/11 07:58:24;;;;;;;8.48;3.47;;;28.30;92.10;;;;;;4168772;28;20048;-63
2023/07/11 08:00:24;;;;;;;9.15;2.95;;;28.20;91.60;;;;;;4166493;28;20482;-64
2023/07/11 08:02:25;;;;;;;5.75;3.03;;;28.20;92.40;;;;;;4167343;28;20033;-63
2023/07/11 08:04:25;;;;;;;3.83;1.80;;;28.30;92.30;;;;;;4168712;28;20037;-63
2023/07/11 08:06:26;;;;;;;6.50;2.30;;;28.40;92.20;;;;;;4168326;28;20041;-68
2023/07/11 08:08:27;;;;;;;4.70;2.10;;;28.40;92.10;;;;;;4171412;28;20199;-63
2023/07/11 08:10:27;;;;;;;7.20;2.60;;;28.40;91.70;;;;;;4170465;28;20057;-63
2023/07/11 08:12:28;;;;;;;4.65;2.20;;;28.40;91.40;;;;;;4168517;28;20040;-63
2023/07/11 08:14:28;;;;;;;5.93;2.17;;;28.40;91.70;;;;;;4170202;28;20029;-63
2023/07/11 08:16:29;;;;;;;6.05;1.75;;;28.40;91.90;;;;;;4166062;28;20029;-63
2023/07/11 08:18:30;;;;;;;10.30;2.28;;;28.50;91.80;;;;;;4172622;28;20071;-63
2023/07/11 08:20:30;;;;;;;4.80;2.10;;;28.50;91.00;;;;;;4167969;28;20153;-63
2023/07/11 08:22:31;;;;;;;3.40;2.20;;;28.60;91.80;;;;;;4171621;28;20506;-63
2023/07/11 08:24:32;;;;;;;6.20;2.40;;;28.70;91.50;;;;;;4166952;28;20029;-63
2023/07/11 08:26:32;;;;;;;3.67;1.83;;;28.70;90.60;;;;;;4165881;28;20430;-63
2023/07/11 08:28:33;;;;;;;5.40;2.10;;;28.70;91.10;;;;;;4166386;28;20155;-63
2023/07/11 08:30:39;;;;;;;7.55;2.22;;;28.70;90.30;;;;;;4165142;28;20481;-63
2023/07/11 08:32:39;;;;;;;4.93;2.03;;;28.80;91.00;;;;;;4167536;28;20504;-63
2023/07/11 08:34:41;;;;;;;4.22;1.90;;;28.80;91.20;;;;;;4168021;28;20111;-63
2023/07/11 08:36:44;;;;;;;4.60;2.08;;;28.80;90.70;;;;;;4164984;28;20430;-63
2023/07/11 08:38:46;;;;;;;3.58;1.60;;;28.80;90.90;;;;;;4172329;28;20503;-63
2023/07/11 08:40:46;;;;;;;3.50;1.67;;;28.80;90.40;;;;;;4165570;28;22269;-63
2023/07/11 08:42:47;;;;;;;3.40;1.75;;;28.90;91.30;;;;;;4181928;28;20041;-63
2023/07/11 08:45:10;;;;;;;2.88;1.90;;;28.80;90.90;;;;;;4185770;28;20543;-63
2023/07/11 08:47:19;;;;;;;3.75;2.10;;;28.70;90.00;;;;;;4169565;28;20045;-63
2023/07/11 08:49:28;;;;;;;4.72;1.92;;;28.70;88.50;;;;;;4174237;28;20106;-63
2023/07/11 08:51:34;;;;;;;2.28;1.73;;;28.70;89.60;;;;;;4172863;28;20043;-64
2023/07/11 08:53:45;;;;;;;3.05;1.60;;;28.70;88.30;;;;;;4175310;28;20476;-63
2023/07/11 08:55:51;;;;;;;2.78;1.42;;;28.80;88.80;;;;;;4173123;28;20029;-63
2023/07/11 08:58:15;;;;;;;5.63;2.15;;;28.70;90.40;;;;;;4175748;28;20399;-63
2023/07/11 09:00:17;;;;;;;3.03;1.83;;;28.80;90.40;;;;;;4179717;28;20520;-63
2023/07/11 09:02:55;;;;;;;7.30;1.92;;;28.80;87.30;;;;;;4169278;28;20026;-63
2023/07/11 09:04:56;;;;;;;2.50;1.70;;;28.80;88.70;;;;;;4180132;28;20033;-64
2023/07/11 09:07:04;;;;;;;3.08;1.70;;;28.90;88.40;;;;;;4179467;28;20463;-63
2023/07/11 09:09:07;;;;;;;3.40;1.90;;;29.00;90.40;;;;;;4175823;28;20021;-63
2023/07/11 09:11:16;;;;;;;5.55;2.08;;;29.00;88.90;;;;;;4172016;28;20030;-63
2023/07/11 09:13:16;;;;;;;2.55;1.60;;;29.20;85.60;;;;;;4171109;28;20033;-63
2023/07/11 09:15:41;;;;;;;4.65;1.80;;;29.20;83.00;;;;;;4159967;28;20052;-63
2023/07/11 09:18:07;;;;;;;3.78;2.05;;;29.40;85.50;;;;;;4176451;28;20025;-63
2023/07/11 09:20:19;;;;;;;3.35;1.50;;;29.40;83.70;;;;;;4177011;28;20365;-64
2023/07/11 09:22:41;;;;;;;6.28;2.65;;;29.50;84.70;;;;;;4156194;28;20037;-63
2023/07/11 09:24:51;;;;;;;4.73;1.93;;;29.50;82.00;;;;;;4164340;28;20037;-64
2023/07/11 09:26:52;;;;;;;2.78;1.88;;;29.60;82.80;;;;;;4163971;28;20045;-63
2023/07/11 09:29:06;;;;;;;3.10;1.52;;;29.70;82.40;;;;;;4160125;28;20384;-63
2023/07/11 09:31:16;;;;;;;3.05;1.88;;;29.80;82.50;;;;;;4157875;28;20029;-63
2023/07/11 09:33:20;;;;;;;3.03;1.65;;;29.90;82.10;;;;;;4161129;28;20036;-63
2023/07/11 09:35:26;;;;;;;3.47;1.67;;;30.00;81.90;;;;;;4175579;28;20052;-63
2023/07/11 09:37:42;;;;;;;4.95;1.48;;;30.00;81.70;;;;;;4159601;28;20029;-63
2023/07/11 09:40:16;;;;;;;3.70;1.60;;;30.00;78.70;;;;;;4178733;28;20028;-63
2023/07/11 09:42:46;;;;;;;3.10;1.65;;;30.00;75.80;;;;;;4176363;28;20736;-63
2023/07/11 09:45:01;;;;;;;3.30;1.70;;;30.10;76.10;;;;;;4178003;28;20440;-63
2023/07/11 09:47:20;;;;;;;3.72;1.60;;;30.00;75.70;;;;;;4158677;28;20028;-63
2023/07/11 09:49:28;;;;;;;2.58;1.40;;;30.10;75.70;;;;;;4176091;28;20123;-63
2023/07/11 09:51:46;;;;;;;2.38;1.60;;;30.10;77.90;;;;;;4158921;28;20118;-64
2023/07/11 09:53:47;;;;;;;3.17;1.63;;;30.20;76.90;;;;;;4149376;28;20037;-63
2023/07/11 09:55:59;;;;;;;3.80;1.83;;;30.20;76.60;;;;;;4146705;28;20112;-63
2023/07/11 09:58:00;;;;;;;2.55;1.40;;;30.20;75.60;;;;;;4151669;28;20108;-63
2023/07/11 10:00:09;;;;;;;2.45;1.45;;;30.30;78.70;;;;;;4149908;28;20111;-64
2023/07/11 10:02:17;;;;;;;3.42;1.85;;;30.30;78.40;;;;;;4162847;28;20443;-63
2023/07/11 10:04:22;;;;;;;5.90;2.58;;;30.40;80.60;;;;;;4164584;28;20029;-64
2023/07/11 10:06:39;;;;;;;4.72;1.60;;;30.50;80.80;;;;;;4162062;28;20048;-63
2023/07/11 10:08:43;;;;;;;4.22;1.38;;;30.50;81.60;;;;;;4160371;28;20045;-63
2023/07/11 10:10:50;;;;;;;4.65;1.70;;;30.60;81.70;;;;;;4161754;28;20037;-64
2023/07/11 10:12:50;;;;;;;5.22;1.50;;;30.60;73.50;;;;;;4160541;28;20037;-63
2023/07/11 10:14:58;;;;;;;3.45;1.85;;;30.60;74.70;;;;;;4163230;28;20038;-63
2023/07/11 10:17:11;;;;;;;3.05;1.55;;;30.60;75.60;;;;;;4162818;28;20067;-63
2023/07/11 10:19:16;;;;;;;3.00;1.52;;;30.50;72.20;;;;;;4157542;28;20038;-63
2023/07/11 10:21:22;;;;;;;4.10;1.77;;;30.50;72.40;;;;;;4159110;28;20481;-63
2023/07/11 10:23:25;;;;;;;5.63;1.98;;;30.50;73.80;;;;;;4176913;28;20108;-63
2023/07/11 10:25:28;;;;;;;2.97;1.77;;;30.50;73.70;;;;;;4172259;28;20036;-64
2023/07/11 10:27:34;;;;;;;3.03;1.85;;;30.50;72.00;;;;;;4177596;28;20036;-63
2023/07/11 10:29:46;;;;;;;2.75;1.55;;;30.60;72.70;;;;;;4174873;28;20485;-63
2023/07/11 10:31:54;;;;;;;3.28;1.70;;;30.60;73.30;;;;;;4172187;28;20032;-63
2023/07/11 10:34:23;;;;;;;4.80;1.35;;;30.60;73.30;;;;;;4160837;28;20064;-64
2023/07/11 10:36:30;;;;;;;4.25;1.85;;;30.60;72.50;;;;;;4159690;28;20041;-63
2023/07/11 10:38:54;;;;;;;4.63;2.10;;;30.60;72.70;;;;;;4146236;28;20042;-64